Time;durP1;ratioP1;P1;durP2;ratioP2;P2;SDS_P1;SDS_P2;PMS_P1;PMS_P2;Temp;Humidity;BMP_temperature;BMP_pressure;BME280_temperature;BME280_humidity;BME280_pressure;Samples;Min_cycle;Max_cycle;Signal;HPM_P1;HPM_P2
2022/05/03 00:02:21;;;;;;;6.35;5.20;;;;;;;8.81;63.07;101718.09;4948718;29;20047;-95
2022/05/03 00:05:01;;;;;;;6.75;5.75;;;;;;;8.78;63.72;101726.13;4954693;28;20103;-95
2022/05/03 00:08:13;;;;;;;7.43;5.97;;;;;;;8.80;62.82;101721.66;4940817;29;20066;-96
2022/05/03 00:11:07;;;;;;;9.18;5.20;;;;;;;8.76;63.06;101720.88;4940030;29;20055;-96
2022/05/03 00:14:06;;;;;;;9.18;5.82;;;;;;;8.72;63.03;101727.19;4952384;29;20035;-95
2022/05/03 00:16:34;;;;;;;6.40;5.30;;;;;;;8.68;64.07;101729.06;4952249;28;20068;-95
2022/05/03 00:19:01;;;;;;;7.63;6.22;;;;;;;8.60;64.19;101717.78;4951547;28;20031;-96
2022/05/03 00:21:27;;;;;;;7.25;5.97;;;;;;;8.56;64.29;101724.09;4953280;28;20397;-96
2022/05/03 00:23:52;;;;;;;8.32;5.80;;;;;;;8.48;64.59;101711.06;4957086;28;20019;-95
2022/05/03 00:26:18;;;;;;;7.50;5.50;;;;;;;8.44;64.74;101713.84;4954183;28;20443;-96
2022/05/03 00:28:44;;;;;;;8.10;5.82;;;;;;;8.31;64.92;101704.44;4990869;28;20039;-95
2022/05/03 00:31:10;;;;;;;7.22;5.43;;;;;;;8.30;65.06;101702.72;4988968;28;20081;-96
2022/05/03 00:33:36;;;;;;;6.38;5.72;;;;;;;8.35;64.96;101709.63;4980773;28;20054;-96
2022/05/03 00:36:02;;;;;;;8.40;5.85;;;;;;;8.37;65.05;101713.16;4991595;28;20035;-95
2022/05/03 00:38:27;;;;;;;7.22;5.72;;;;;;;8.33;64.98;101715.91;4995666;28;20392;-95
2022/05/03 00:40:58;;;;;;;7.22;6.13;;;;;;;8.25;65.29;101708.16;4976576;28;20343;-95
2022/05/03 00:44:02;;;;;;;7.88;5.80;;;;;;;8.19;63.90;101693.28;4989340;28;20027;-96
2022/05/03 00:46:34;;;;;;;6.78;5.75;;;;;;;8.06;65.38;101688.34;4950841;28;20031;-95
2022/05/03 00:49:21;;;;;;;7.03;5.65;;;;;;;8.19;65.07;101706.53;4946766;28;20420;-95
2022/05/03 00:52:05;;;;;;;7.25;5.70;;;;;;;8.13;64.94;101696.09;4949193;29;20039;-95
2022/05/03 00:54:47;;;;;;;7.00;5.20;;;;;;;8.16;64.56;101708.41;4949875;29;20039;-96
2022/05/03 00:57:49;;;;;;;8.32;5.72;;;;;;;8.12;64.43;101707.63;4950734;28;20082;-95
2022/05/03 01:00:15;;;;;;;6.57;5.00;;;;;;;8.05;65.50;101710.47;4947022;29;20052;-96
2022/05/03 01:02:49;;;;;;;7.68;5.78;;;;;;;7.99;65.56;101712.38;4941948;29;20127;-96
2022/05/03 01:05:24;;;;;;;6.13;5.50;;;;;;;7.94;65.59;101713.38;4949602;28;20070;-95
2022/05/03 01:08:05;;;;;;;6.18;5.15;;;;;;;7.92;65.56;101709.91;4951310;29;20039;-96
2022/05/03 01:10:49;;;;;;;8.93;5.57;;;;;;;7.92;65.23;101709.91;4946598;29;20032;-96
2022/05/03 01:13:56;;;;;;;7.10;5.15;;;;;;;7.86;64.78;101699.47;4946384;29;20064;-96
2022/05/03 01:16:32;;;;;;;7.03;5.40;;;;;;;7.81;65.66;101704.88;4950208;29;20050;-94
2022/05/03 01:19:32;;;;;;;7.68;5.40;;;;;;;7.77;65.66;101695.28;4948576;29;20063;-95
2022/05/03 01:21:57;;;;;;;6.00;5.40;;;;;;;7.72;65.92;101694.53;4966159;28;20411;-95
2022/05/03 01:24:25;;;;;;;7.15;5.55;;;;;;;7.74;65.70;101693.59;4992595;28;20042;-96
2022/05/03 01:27:17;;;;;;;6.32;5.68;;;;;;;7.65;65.68;101683.22;4976486;28;20067;-96
2022/05/03 01:29:45;;;;;;;6.90;5.82;;;;;;;7.59;66.07;101685.16;4963105;28;20053;-96
2022/05/03 01:32:12;;;;;;;5.93;4.88;;;;;;;7.58;66.33;101694.00;4986759;28;20019;-94
2022/05/03 01:34:37;;;;;;;8.07;5.70;;;;;;;7.52;66.60;101689.72;4985568;28;20034;-96
2022/05/03 01:37:40;;;;;;;9.70;5.68;;;;;;;7.52;65.96;101692.38;4990049;28;20030;-95
2022/05/03 01:40:21;;;;;;;7.85;5.28;;;;;;;7.43;66.38;101682.88;4989661;28;20109;-96
2022/05/03 01:42:50;;;;;;;7.32;5.80;;;;;;;7.46;66.68;101689.88;4979207;28;20027;-95
2022/05/03 01:45:26;;;;;;;6.43;5.70;;;;;;;7.42;66.46;101680.25;4994145;28;20030;-96
2022/05/03 01:48:17;;;;;;;7.70;5.20;;;;;;;7.38;66.79;101692.72;4992640;28;20048;-96
2022/05/03 01:51:19;;;;;;;7.85;6.05;;;;;;;7.36;66.17;101681.31;4992206;28;20038;-95
2022/05/03 01:53:46;;;;;;;7.43;5.65;;;;;;;7.31;66.93;101675.22;4982021;28;20044;-94
2022/05/03 01:56:46;;;;;;;8.13;5.80;;;;;;;7.36;66.26;101683.94;4993635;28;20026;-94
2022/05/03 01:59:17;;;;;;;9.68;5.80;;;;;;;7.30;66.72;101697.31;4993038;28;20050;-95
2022/05/03 02:01:51;;;;;;;7.82;5.72;;;;;;;7.32;67.05;101692.00;4986464;28;20034;-95
2022/05/03 02:04:45;;;;;;;6.35;5.47;;;;;;;7.30;66.50;101692.03;4993034;28;20082;-96
2022/05/03 02:07:20;;;;;;;8.07;5.30;;;;;;;7.24;67.14;101693.03;4986382;28;20023;-95
2022/05/03 02:09:45;;;;;;;9.27;5.95;;;;;;;7.20;67.57;101690.50;4994049;28;20061;-94
2022/05/03 02:12:21;;;;;;;9.07;5.78;;;;;;;7.22;66.96;101686.03;4992747;28;20399;-95
2022/05/03 02:14:51;;;;;;;6.95;5.43;;;;;;;7.11;67.43;101678.34;4992265;28;20046;-96
2022/05/03 02:17:51;;;;;;;6.82;5.60;;;;;;;7.08;66.99;101669.63;4992568;28;20113;-96
2022/05/03 02:20:50;;;;;;;7.25;6.10;;;;;;;7.06;67.06;101676.69;4991309;28;20433;-96
2022/05/03 02:23:37;;;;;;;8.77;5.70;;;;;;;7.07;67.94;101681.97;4976916;28;20030;-96
2022/05/03 02:26:11;;;;;;;6.75;5.68;;;;;;;6.99;67.89;101684.78;4995256;28;20038;-95
2022/05/03 02:28:54;;;;;;;5.90;5.30;;;;;;;6.98;67.78;101683.06;4995931;28;20050;-95
2022/05/03 02:31:30;;;;;;;7.70;5.55;;;;;;;6.88;68.78;101688.59;4992126;28;20026;-95
2022/05/03 02:34:04;;;;;;;9.32;6.28;;;;;;;6.83;68.64;101688.69;4995542;28;20440;-95
2022/05/03 02:36:38;;;;;;;8.77;5.93;;;;;;;6.78;68.66;101679.13;4987666;28;20336;-95
2022/05/03 02:39:05;;;;;;;7.97;6.03;;;;;;;6.76;68.92;101692.38;4989161;28;20104;-94
2022/05/03 02:41:32;;;;;;;8.75;6.22;;;;;;;6.79;68.95;101683.50;4987764;28;20030;-95
2022/05/03 02:43:59;;;;;;;6.85;5.72;;;;;;;6.74;69.17;101687.13;4992886;28;20506;-96
2022/05/03 02:46:34;;;;;;;7.90;5.85;;;;;;;6.70;69.30;101681.94;4989794;28;20026;-96
2022/05/03 02:49:07;;;;;;;8.50;5.55;;;;;;;6.66;69.31;101685.53;4989123;28;20026;-96
2022/05/03 02:51:40;;;;;;;8.50;5.90;;;;;;;6.64;69.19;101687.31;4981530;28;20494;-96
2022/05/03 02:54:20;;;;;;;6.65;5.20;;;;;;;6.65;68.96;101686.44;4992888;28;20030;-96
2022/05/03 02:56:58;;;;;;;7.22;5.13;;;;;;;6.65;69.08;101686.44;4991477;28;20038;-96
2022/05/03 03:02:48;;;;;;;7.25;5.85;;;;;;;6.57;69.04;101677.81;4980497;28;20059;-95
2022/05/03 03:05:19;;;;;;;7.63;6.03;;;;;;;6.52;69.55;101687.59;4992154;28;20546;-95
2022/05/03 03:07:52;;;;;;;10.27;6.32;;;;;;;6.48;69.68;101681.50;4993492;28;20105;-96
2022/05/03 03:10:22;;;;;;;8.82;6.03;;;;;;;6.54;69.58;101689.31;4980259;28;20057;-96
2022/05/03 03:12:57;;;;;;;9.90;5.93;;;;;;;6.55;69.67;101685.75;4999809;28;20041;-95
2022/05/03 03:15:28;;;;;;;8.00;5.90;;;;;;;6.46;69.99;101692.09;4984913;28;20038;-96
2022/05/03 03:17:56;;;;;;;7.80;5.80;;;;;;;6.41;70.19;101686.03;4998266;28;20033;-96
2022/05/03 03:20:27;;;;;;;8.70;5.63;;;;;;;6.43;69.95;101693.94;4986399;28;20019;-96
2022/05/03 03:22:54;;;;;;;7.38;6.00;;;;;;;6.41;69.73;101686.03;4983353;28;20061;-96
2022/05/03 03:25:20;;;;;;;8.15;6.35;;;;;;;6.40;70.00;101689.59;4982851;28;20479;-96
2022/05/03 03:27:48;;;;;;;8.18;6.32;;;;;;;6.39;69.82;101689.59;4981656;28;20129;-96
2022/05/03 03:30:16;;;;;;;8.32;5.43;;;;;;;6.28;70.29;101684.53;4965116;28;20069;-96
2022/05/03 03:32:46;;;;;;;7.13;5.97;;;;;;;6.31;70.45;101689.78;4978911;28;20776;-96
2022/05/03 03:35:13;;;;;;;7.35;5.97;;;;;;;6.22;70.75;101688.16;4978912;28;20081;-96
2022/05/03 03:37:43;;;;;;;10.20;5.85;;;;;;;6.17;70.58;101683.88;4979656;28;20033;-96
2022/05/03 03:40:09;;;;;;;9.20;6.00;;;;;;;6.17;71.09;101692.66;4981613;28;20045;-95
2022/05/03 03:42:34;;;;;;;7.75;6.20;;;;;;;6.02;71.29;101669.19;4978771;28;20058;-95
2022/05/03 03:45:02;;;;;;;8.60;5.88;;;;;;;6.02;71.70;101689.44;4979245;28;20066;-96
2022/05/03 03:47:29;;;;;;;10.30;6.63;;;;;;;5.98;71.89;101686.00;4974619;28;20042;-95
2022/05/03 03:49:56;;;;;;;9.90;6.25;;;;;;;5.92;72.20;101680.81;4979551;28;20028;-96
2022/05/03 03:52:23;;;;;;;9.07;6.88;;;;;;;5.89;72.07;101673.78;4974662;28;20038;-95
2022/05/03 03:54:49;;;;;;;8.23;6.05;;;;;;;5.91;71.98;101679.06;4991090;28;20022;-95
2022/05/03 03:57:15;;;;;;;8.75;5.97;;;;;;;5.93;71.85;101674.63;4992204;28;20029;-96
2022/05/03 03:59:41;;;;;;;7.55;6.30;;;;;;;5.94;72.18;101682.53;4976998;28;20026;-96
2022/05/03 04:02:06;;;;;;;9.45;6.57;;;;;;;5.91;72.22;101689.63;4985407;28;20019;-96
2022/05/03 04:04:35;;;;;;;9.40;6.22;;;;;;;5.89;72.38;101684.34;4992079;28;20596;-94
2022/05/03 04:07:01;;;;;;;9.20;6.60;;;;;;;5.86;72.49;101687.06;4990652;28;20037;-95
2022/05/03 04:09:27;;;;;;;9.02;6.55;;;;;;;5.85;72.50;101685.31;4984628;28;20026;-95
2022/05/03 04:11:53;;;;;;;8.32;6.22;;;;;;;5.82;72.73;101684.50;4991667;28;20022;-96
2022/05/03 04:14:19;;;;;;;9.13;6.78;;;;;;;5.74;72.79;101676.72;4989737;28;20043;-95
2022/05/03 04:16:45;;;;;;;9.05;6.53;;;;;;;5.68;73.25;101679.44;4987461;28;20088;-95
2022/05/03 04:19:11;;;;;;;6.85;6.15;;;;;;;5.66;73.26;101683.91;4990184;28;20065;-95
2022/05/03 04:21:37;;;;;;;10.75;7.15;;;;;;;5.70;73.13;101689.09;4982634;28;20026;-96
2022/05/03 04:24:02;;;;;;;7.55;6.00;;;;;;;5.72;73.26;101694.34;4991496;28;20368;-96
2022/05/03 04:26:28;;;;;;;8.45;6.57;;;;;;;5.68;73.57;101682.09;4977594;28;20034;-95
2022/05/03 04:28:57;;;;;;;8.65;7.18;;;;;;;5.63;73.64;101678.66;4993198;28;20027;-95
2022/05/03 04:31:32;;;;;;;7.68;6.60;;;;;;;5.73;73.17;101690.81;4956295;28;20137;-96
2022/05/03 04:33:58;;;;;;;10.45;6.40;;;;;;;5.73;73.63;101685.53;4962895;28;20473;-95
2022/05/03 04:36:25;;;;;;;11.13;7.10;;;;;;;5.72;73.48;101678.50;4990055;28;20487;-96
2022/05/03 04:38:50;;;;;;;8.15;6.57;;;;;;;5.82;73.56;101689.78;4990395;28;20070;-95
2022/05/03 04:41:16;;;;;;;10.45;6.78;;;;;;;5.78;73.60;101683.69;4970530;28;20504;-94
2022/05/03 04:43:42;;;;;;;9.70;6.88;;;;;;;5.86;73.35;101695.00;4991478;28;20522;-95
2022/05/03 04:46:07;;;;;;;10.07;6.82;;;;;;;5.92;72.74;101694.91;4989019;28;20158;-95
2022/05/03 04:48:32;;;;;;;9.20;6.80;;;;;;;5.89;73.27;101694.91;4990968;28;20181;-96
2022/05/03 04:50:58;;;;;;;9.20;7.03;;;;;;;5.90;73.33;101694.03;4976788;28;20034;-95
2022/05/03 04:53:23;;;;;;;8.38;7.10;;;;;;;5.92;73.44;101694.03;4988186;28;20035;-96
2022/05/03 04:55:49;;;;;;;8.95;6.88;;;;;;;5.91;73.23;101695.78;4980602;28;20026;-94
2022/05/03 04:58:15;;;;;;;9.65;7.10;;;;;;;5.92;73.21;101689.63;4994374;28;20030;-96
2022/05/03 05:00:40;;;;;;;9.05;7.13;;;;;;;6.00;73.31;101702.69;4988936;28;20333;-94
2022/05/03 05:03:06;;;;;;;9.80;7.10;;;;;;;6.08;72.97;101711.34;4985242;28;20035;-94
2022/05/03 05:05:31;;;;;;;9.70;7.47;;;;;;;6.03;73.22;101696.50;4994285;28;20022;-96
2022/05/03 05:08:02;;;;;;;8.95;7.05;;;;;;;6.14;73.04;101705.94;4991256;28;20085;-95
2022/05/03 05:10:28;;;;;;;8.85;7.38;;;;;;;6.18;73.05;101696.19;4984202;28;20034;-95
2022/05/03 05:12:54;;;;;;;10.82;7.45;;;;;;;6.25;72.49;101705.75;4995560;28;20027;-95
2022/05/03 05:15:25;;;;;;;9.88;7.20;;;;;;;6.30;72.02;101705.66;4996449;28;20259;-95
2022/05/03 05:17:52;;;;;;;8.70;6.40;;;;;;;6.39;72.20;101710.75;4992332;28;20080;-95
2022/05/03 05:20:18;;;;;;;7.70;6.55;;;;;;;6.43;71.96;101718.59;4990715;28;20056;-96
2022/05/03 05:22:44;;;;;;;8.82;7.28;;;;;;;6.51;71.72;101722.88;4991489;28;20112;-96
2022/05/03 05:25:10;;;;;;;9.15;7.30;;;;;;;6.60;71.70;101717.41;4993573;28;20030;-95
2022/05/03 05:27:36;;;;;;;9.45;7.22;;;;;;;6.62;71.25;101712.97;4992555;28;20051;-95
2022/05/03 05:30:02;;;;;;;9.75;7.32;;;;;;;6.74;71.08;101721.50;4986889;28;20042;-95
2022/05/03 05:32:27;;;;;;;8.18;6.97;;;;;;;6.79;70.63;101713.47;4989993;28;20122;-96
2022/05/03 05:34:53;;;;;;;11.55;7.68;;;;;;;6.88;70.75;101717.69;4975197;28;20121;-95
2022/05/03 05:37:18;;;;;;;10.05;7.40;;;;;;;7.03;70.03;101716.50;4975539;28;20404;-95
2022/05/03 05:39:44;;;;;;;10.52;6.95;;;;;;;7.21;69.47;101724.88;4983969;28;20082;-94
2022/05/03 05:42:11;;;;;;;8.35;6.85;;;;;;;7.36;69.06;101728.97;4986831;28;20396;-95
2022/05/03 05:44:37;;;;;;;10.93;7.65;;;;;;;7.51;68.67;101718.91;4993807;28;20035;-94
2022/05/03 05:47:04;;;;;;;9.15;7.13;;;;;;;7.67;68.01;101725.56;4994160;28;20408;-94
2022/05/03 05:49:30;;;;;;;10.00;7.05;;;;;;;7.83;67.32;101726.94;4982426;28;20034;-95
2022/05/03 05:53:31;;;;;;;11.18;6.90;;;;;;;7.92;66.87;101729.34;4974721;28;20172;-94
2022/05/03 05:54:40;;;;;;;9.57;7.50;;;;;;;8.02;66.32;101731.75;4975865;28;20484;-89
2022/05/03 05:57:06;;;;;;;8.80;7.30;;;;;;;8.10;66.10;101735.06;4990167;28;20110;-93
2022/05/03 05:59:31;;;;;;;7.78;6.88;;;;;;;8.16;66.18;101727.84;4988447;28;20042;-95
2022/05/03 06:01:56;;;;;;;9.77;7.28;;;;;;;8.32;65.55;101736.25;4992030;28;20031;-96
2022/05/03 06:04:21;;;;;;;12.40;9.18;;;;;;;8.38;64.65;101733.44;4991929;28;20054;-96
2022/05/03 06:06:47;;;;;;;7.80;6.88;;;;;;;8.56;64.84;101747.13;4989549;28;20042;-94
2022/05/03 06:09:12;;;;;;;16.85;12.43;;;;;;;8.65;64.01;101744.19;4990598;28;20483;-96
2022/05/03 06:11:37;;;;;;;9.85;7.43;;;;;;;8.70;64.03;101740.53;4995270;28;20079;-96
2022/05/03 06:14:02;;;;;;;12.45;7.53;;;;;;;8.71;63.86;101739.59;4993279;28;20049;-96
2022/05/03 06:16:28;;;;;;;13.75;7.68;;;;;;;8.83;63.14;101748.13;4986842;28;20061;-96
2022/05/03 06:18:53;;;;;;;9.32;7.47;;;;;;;8.91;63.54;101747.00;4993457;28;20023;-95
2022/05/03 06:21:18;;;;;;;9.38;7.50;;;;;;;9.09;63.21;101755.31;4992851;28;20030;-94
2022/05/03 06:23:44;;;;;;;9.43;6.68;;;;;;;9.15;62.59;101739.19;4969702;28;20415;-94
2022/05/03 06:26:09;;;;;;;9.25;6.85;;;;;;;9.28;61.97;101734.34;4994865;28;20018;-95
2022/05/03 06:28:35;;;;;;;11.27;8.35;;;;;;;9.33;61.39;101741.28;4997223;28;20436;-93
2022/05/03 06:31:00;;;;;;;10.60;8.32;;;;;;;9.55;61.17;101751.22;4988503;28;20121;-93
2022/05/03 06:33:26;;;;;;;9.85;7.35;;;;;;;9.78;60.40;101740.72;4998845;28;20037;-91
2022/05/03 06:35:51;;;;;;;9.43;7.78;;;;;;;9.94;59.37;101741.94;4996906;28;20451;-95
2022/05/03 06:38:17;;;;;;;11.20;8.20;;;;;;;10.09;59.49;101750.31;4974182;28;20124;-95
2022/05/03 06:40:42;;;;;;;10.75;7.85;;;;;;;10.16;59.57;101751.84;4965441;28;20030;-91
2022/05/03 06:43:08;;;;;;;10.40;7.35;;;;;;;10.19;58.83;101747.28;4988620;28;20032;-96
2022/05/03 06:45:33;;;;;;;9.07;7.20;;;;;;;10.20;58.82;101748.16;4984200;28;20037;-92
2022/05/03 06:48:00;;;;;;;10.95;7.03;;;;;;;10.31;58.66;101751.34;4985271;28;20531;-94
2022/05/03 06:50:25;;;;;;;7.65;6.82;;;;;;;10.47;59.21;101749.88;4979190;28;20031;-90
2022/05/03 06:52:51;;;;;;;12.93;7.13;;;;;;;10.67;57.30;101751.81;4969235;28;20034;-91
2022/05/03 06:55:16;;;;;;;12.90;7.57;;;;;;;10.78;57.25;101754.06;4980461;28;20126;-91
2022/05/03 06:57:41;;;;;;;11.13;8.07;;;;;;;11.00;57.07;101751.47;4994188;28;20046;-93
2022/05/03 07:00:08;;;;;;;8.75;7.38;;;;;;;11.13;55.96;101744.75;4982686;28;20022;-95
2022/05/03 07:02:34;;;;;;;10.15;6.78;;;;;;;11.42;55.63;101746.25;4985757;28;20102;-95
2022/05/03 07:05:00;;;;;;;9.43;7.05;;;;;;;11.69;54.71;101754.94;4959707;28;20030;-95
2022/05/03 07:07:27;;;;;;;10.88;6.63;;;;;;;11.94;53.62;101751.28;4993836;28;20026;-96
2022/05/03 07:09:52;;;;;;;9.15;6.78;;;;;;;12.30;53.46;101764.88;4986709;28;20037;-93
2022/05/03 07:12:17;;;;;;;9.05;7.13;;;;;;;12.63;51.90;101751.84;4990167;28;20088;-94
2022/05/03 07:14:43;;;;;;;9.70;6.22;;;;;;;13.06;49.83;101765.03;4992388;28;20026;-95
2022/05/03 07:17:08;;;;;;;10.32;7.35;;;;;;;13.49;49.30;101755.84;4984082;28;20274;-96
2022/05/03 07:25:02;;;;;;;9.32;5.95;;;;;;;14.34;45.80;101757.84;4987724;28;20046;-96
2022/05/03 07:27:28;;;;;;;7.60;5.47;;;;;;;14.73;46.12;101752.22;4991553;28;20320;-96
2022/05/03 07:29:53;;;;;;;6.85;5.28;;;;;;;15.07;43.52;101748.56;4983631;28;20031;-96
2022/05/03 07:32:19;;;;;;;7.55;5.40;;;;;;;15.51;42.53;101747.00;4989044;28;20583;-95
2022/05/03 07:34:44;;;;;;;5.32;4.40;;;;;;;15.88;39.46;101761.88;4987086;28;20412;-94
2022/05/03 07:37:10;;;;;;;5.05;3.90;;;;;;;16.05;37.18;101753.72;4976082;28;20113;-95
2022/05/03 07:39:35;;;;;;;3.92;3.50;;;;;;;16.34;36.43;101760.00;4980725;28;20095;-94
2022/05/03 07:42:00;;;;;;;4.63;3.70;;;;;;;16.58;36.02;101763.03;4983109;28;20045;-94
2022/05/03 07:44:26;;;;;;;4.80;3.53;;;;;;;16.84;33.99;101761.44;4991165;28;20022;-95
2022/05/03 07:46:51;;;;;;;4.68;3.22;;;;;;;16.89;33.60;101759.34;4972109;28;20038;-92
2022/05/03 07:49:16;;;;;;;4.57;3.25;;;;;;;17.22;33.59;101762.66;4987251;28;20200;-94
2022/05/03 07:51:41;;;;;;;4.68;3.55;;;;;;;17.48;33.03;101761.00;4990868;28;20026;-92
2022/05/03 07:54:08;;;;;;;4.32;3.50;;;;;;;17.77;33.37;101759.97;4971505;28;20022;-93
2022/05/03 07:56:33;;;;;;;5.95;3.83;;;;;;;18.20;32.22;101756.19;4987318;28;20038;-92
2022/05/03 07:58:59;;;;;;;5.47;3.85;;;;;;;18.85;31.60;101758.81;4970384;28;20503;-92
2022/05/03 08:01:24;;;;;;;5.10;3.92;;;;;;;19.06;30.56;101756.44;4986313;28;20090;-93
2022/05/03 08:03:49;;;;;;;4.93;3.40;;;;;;;19.24;30.59;101754.25;4988435;28;20614;-93
2022/05/03 08:06:14;;;;;;;4.45;3.75;;;;;;;19.70;30.34;101762.53;4990033;28;20030;-92
2022/05/03 08:08:40;;;;;;;5.05;3.75;;;;;;;20.17;29.17;101757.22;4980880;28;20034;-92
2022/05/03 08:11:05;;;;;;;4.88;3.47;;;;;;;20.53;29.36;101756.25;4989973;28;20027;-93
2022/05/03 08:13:30;;;;;;;5.75;3.58;;;;;;;21.22;27.85;101770.50;4996316;28;20018;-92
2022/05/03 08:15:55;;;;;;;5.13;3.38;;;;;;;21.52;27.57;101759.03;4980777;28;20443;-93
2022/05/03 08:18:21;;;;;;;4.85;3.65;;;;;;;21.80;27.77;101759.47;4975947;28;20038;-93
2022/05/03 08:20:46;;;;;;;6.05;3.72;;;;;;;22.03;26.34;101760.22;4988362;28;20062;-92
2022/05/03 08:23:11;;;;;;;4.07;3.67;;;;;;;21.93;25.55;101746.59;4988602;28;20085;-93
2022/05/03 08:25:37;;;;;;;5.47;3.75;;;;;;;21.63;25.67;101761.72;4982162;28;20037;-94
2022/05/03 08:28:03;;;;;;;7.07;3.95;;;;;;;21.86;25.94;101767.97;4975116;28;20042;-94
2022/05/03 08:30:28;;;;;;;6.07;4.35;;;;;;;22.07;26.19;101767.09;4983244;28;20031;-94
2022/05/03 08:32:53;;;;;;;4.95;4.15;;;;;;;22.22;25.85;101763.13;4988826;28;20105;-94
2022/05/03 08:35:21;;;;;;;5.63;4.30;;;;;;;22.68;25.81;101761.84;4989064;28;20535;-94
2022/05/03 08:43:16;;;;;;;8.20;4.32;;;;;;;23.70;23.87;101767.25;4989662;28;20089;-94
2022/05/03 08:45:45;;;;;;;5.43;4.18;;;;;;;24.11;22.83;101768.84;4987253;28;20685;-93
2022/05/03 08:48:12;;;;;;;5.15;4.10;;;;;;;24.63;22.66;101766.69;4974815;28;20042;-93
2022/05/03 08:50:38;;;;;;;4.85;3.92;;;;;;;24.99;22.41;101766.84;4983699;28;20033;-93
2022/05/03 08:53:05;;;;;;;6.82;4.43;;;;;;;24.95;22.76;101773.59;4977186;28;20027;-94
2022/05/03 08:55:31;;;;;;;5.40;4.50;;;;;;;25.04;23.46;101769.97;4986195;28;20050;-93
2022/05/03 08:57:56;;;;;;;4.72;4.10;;;;;;;25.16;22.72;101770.66;4980072;28;20048;-94
2022/05/03 09:00:23;;;;;;;7.80;4.50;;;;;;;25.11;22.76;101778.44;4980306;28;20502;-94
2022/05/03 09:02:56;;;;;;;5.93;4.40;;;;;;;25.37;22.63;101779.44;4988601;28;20438;-93
2022/05/03 09:05:23;;;;;;;9.00;4.75;;;;;;;25.89;22.13;101776.97;4989554;28;20277;-95
2022/05/03 09:07:54;;;;;;;4.90;4.50;;;;;;;25.71;21.16;101776.94;4980004;28;20151;-93
2022/05/03 09:10:33;;;;;;;6.43;5.07;;;;;;;25.99;22.61;101774.16;4982473;28;20046;-94
2022/05/03 09:13:26;;;;;;;6.85;4.55;;;;;;;26.64;22.61;101766.53;4985500;28;20057;-93
2022/05/03 09:15:57;;;;;;;6.03;4.55;;;;;;;26.75;21.27;101774.47;4973459;28;20050;-94
2022/05/03 09:18:26;;;;;;;4.47;3.80;;;;;;;27.33;20.82;101766.56;4984253;28;20038;-94
2022/05/03 09:23:47;;;;;;;5.57;4.88;;;;;;;27.63;19.52;101779.66;4979385;28;20160;-94
2022/05/03 09:26:20;;;;;;;6.35;5.10;;;;;;;27.58;20.58;101770.22;4988589;28;20033;-95
2022/05/03 09:28:55;;;;;;;;;;;;;;;28.40;20.36;101768.50;4981281;28;20045;-94
2022/05/03 09:31:46;;;;;;;6.10;4.35;;;;;;;28.01;21.54;101769.16;4989093;28;19985;-96
2022/05/03 09:34:25;;;;;;;5.43;4.57;;;;;;;28.59;20.51;101765.38;4974523;28;20039;-95
2022/05/03 09:37:05;;;;;;;5.35;4.65;;;;;;;29.09;19.83;101756.00;4989185;28;20042;-96
2022/05/03 09:39:31;;;;;;;5.47;4.05;;;;;;;29.64;18.44;101768.81;4981743;28;20361;-94
2022/05/03 09:42:20;;;;;;;5.28;4.65;;;;;;;29.72;19.17;101779.72;4989621;28;20395;-95
2022/05/03 09:45:02;;;;;;;6.40;4.68;;;;;;;29.38;19.33;101779.19;4993083;28;20443;-94
2022/05/03 09:47:54;;;;;;;5.53;5.03;;;;;;;29.70;19.06;101769.97;4972531;28;20022;-95
2022/05/03 09:50:29;;;;;;;5.00;4.50;;;;;;;29.57;18.93;101773.28;4970662;28;20042;-93
2022/05/03 09:52:56;;;;;;;6.28;5.35;;;;;;;29.18;18.57;101767.78;4991689;28;20285;-94
2022/05/03 09:55:32;;;;;;;5.22;4.70;;;;;;;29.55;19.49;101775.31;4990888;28;20038;-94
2022/05/03 09:58:03;;;;;;;5.78;4.75;;;;;;;29.57;18.30;101772.44;4988442;28;20031;-96
2022/05/03 10:00:31;;;;;;;5.72;5.05;;;;;;;29.69;18.66;101777.34;4990820;28;20505;-95
2022/05/03 10:02:58;;;;;;;6.00;5.40;;;;;;;29.72;18.35;101778.84;4991771;28;20035;-95
2022/05/03 10:05:24;;;;;;;9.57;5.22;;;;;;;30.13;18.39;101760.19;4975224;28;20026;-94
2022/05/03 10:07:50;;;;;;;6.50;4.97;;;;;;;30.60;17.80;101760.97;4986092;28;20121;-95
2022/05/03 10:10:16;;;;;;;5.28;4.72;;;;;;;31.16;17.47;101758.66;4984876;28;20114;-93
2022/05/03 10:12:43;;;;;;;5.80;4.82;;;;;;;31.43;17.50;101763.47;4991410;28;20034;-94
2022/05/03 10:15:09;;;;;;;6.13;5.50;;;;;;;31.70;17.39;101759.13;4990428;28;20053;-94
2022/05/03 10:20:39;;;;;;;7.13;5.03;;;;;;;32.08;17.05;101756.16;4991788;28;20044;-93
2022/05/03 10:23:17;;;;;;;6.28;5.10;;;;;;;31.59;17.43;101754.13;4974875;28;20502;-94
2022/05/03 10:25:42;;;;;;;7.63;5.03;;;;;;;31.63;17.48;101752.69;4990156;28;20030;-93
2022/05/03 10:28:07;;;;;;;5.40;4.57;;;;;;;32.49;16.59;101752.72;4984443;28;20067;-95
2022/05/03 10:30:34;;;;;;;6.75;5.20;;;;;;;32.86;16.17;101739.59;4990931;28;20023;-93
2022/05/03 10:33:21;;;;;;;8.70;4.75;;;;;;;32.74;17.02;101747.59;4990820;28;20033;-92
2022/05/03 10:35:47;;;;;;;7.60;5.18;;;;;;;31.85;16.66;101747.22;4990113;28;20061;-92
2022/05/03 10:38:13;;;;;;;6.30;5.05;;;;;;;31.49;17.16;101748.09;4989487;28;20487;-93
2022/05/03 10:40:43;;;;;;;5.72;5.00;;;;;;;32.39;17.21;101742.03;4974610;28;20038;-93
2022/05/03 10:43:23;;;;;;;5.32;4.40;;;;;;;32.82;16.58;101736.41;4971548;28;20476;-93
2022/05/03 10:45:54;;;;;;;5.60;4.50;;;;;;;33.58;16.53;101744.63;4992416;28;20065;-93
2022/05/03 10:48:25;;;;;;;6.78;5.43;;;;;;;34.10;16.15;101725.59;4990372;28;20038;-92
2022/05/03 10:50:52;;;;;;;5.85;5.18;;;;;;;34.16;15.75;101736.66;4995563;28;20033;-93
2022/05/03 10:53:20;;;;;;;5.45;4.95;;;;;;;34.07;14.84;101739.81;4991358;28;20054;-95
2022/05/03 10:56:18;;;;;;;5.95;4.95;;;;;;;34.71;16.49;101741.94;4979171;28;20038;-92
2022/05/03 10:59:02;;;;;;;6.85;5.53;;;;;;;35.02;16.24;101738.44;4982997;28;20472;-94
2022/05/03 11:01:28;;;;;;;5.72;4.68;;;;;;;34.97;14.35;101729.09;4985192;28;20038;-93
2022/05/03 11:03:54;;;;;;;5.82;4.60;;;;;;;33.96;15.19;101730.22;4990031;28;20029;-94
2022/05/03 11:06:19;;;;;;;5.28;4.60;;;;;;;30.61;17.53;101730.59;4987365;28;20472;-93
2022/05/03 11:09:15;;;;;;;4.97;4.47;;;;;;;27.93;21.03;101728.09;4981519;28;20042;-94
2022/05/03 11:11:49;;;;;;;6.75;5.93;;;;;;;26.95;21.91;101727.78;4973319;28;20040;-94
2022/05/03 11:14:21;;;;;;;7.97;6.25;;;;;;;28.88;20.62;101728.31;4989776;28;20207;-93
2022/05/03 11:16:50;;;;;;;8.57;6.20;;;;;;;30.48;19.18;101711.16;4986203;28;20041;-93
2022/05/03 11:19:16;;;;;;;7.90;6.15;;;;;;;32.10;17.38;101718.22;4987798;28;20112;-93
2022/05/03 11:21:43;;;;;;;7.78;6.10;;;;;;;32.64;16.88;101709.34;4976823;28;20056;-93
2022/05/03 11:24:28;;;;;;;5.10;4.55;;;;;;;33.92;16.52;101706.84;4988969;28;20033;-92
2022/05/03 11:27:00;;;;;;;8.77;6.57;;;;;;;33.35;16.17;101717.31;4981961;28;20161;-93
2022/05/03 11:29:43;;;;;;;7.05;6.25;;;;;;;31.62;18.13;101711.63;4974348;28;20029;-94
2022/05/03 11:32:10;;;;;;;11.10;6.82;;;;;;;29.57;19.22;101707.47;4989210;28;20026;-93
2022/05/03 11:34:36;;;;;;;8.15;6.38;;;;;;;29.33;20.25;101711.16;4989022;28;20109;-94
2022/05/03 11:37:03;;;;;;;6.53;5.93;;;;;;;31.03;18.60;101711.75;4980364;28;20046;-94
2022/05/03 11:39:29;;;;;;;7.10;6.30;;;;;;;32.23;17.62;101701.84;4988713;28;20080;-95
2022/05/03 11:41:54;;;;;;;6.68;5.75;;;;;;;32.67;16.75;101686.88;4989069;28;20038;-92
2022/05/03 11:44:20;;;;;;;7.97;5.45;;;;;;;32.82;17.00;101706.06;4977251;28;20050;-93
2022/05/03 11:46:47;;;;;;;7.18;5.90;;;;;;;31.65;17.54;101691.97;4980634;28;20743;-94
2022/05/03 11:49:14;;;;;;;6.63;5.82;;;;;;;29.78;19.47;101693.94;4988209;28;20413;-93
2022/05/03 11:57:16;;;;;;;6.07;5.32;;;;;;;31.40;18.25;101695.09;4982301;28;20065;-93
2022/05/03 11:59:42;;;;;;;8.10;5.53;;;;;;;32.70;17.63;101672.72;4991798;28;20033;-93
2022/05/03 12:02:28;;;;;;;7.07;5.95;;;;;;;33.89;16.71;101668.63;4988850;28;20125;-94
2022/05/03 12:05:06;;;;;;;6.97;5.60;;;;;;;33.88;16.66;101673.28;4973304;28;20035;-93
2022/05/03 12:07:35;;;;;;;6.47;5.18;;;;;;;34.56;15.59;101666.66;4975879;28;20053;-93
2022/05/03 12:10:00;;;;;;;6.88;5.80;;;;;;;34.73;15.42;101672.56;4988922;28;20022;-93
2022/05/03 12:12:45;;;;;;;7.00;5.78;;;;;;;33.34;16.46;101676.16;4988304;28;20041;-94